createdAt,value
2023-01-19T00:00:22.278Z,507.00
2023-01-19T00:01:22.201Z,509.00
2023-01-19T00:02:22.231Z,505.00
2023-01-19T00:03:22.187Z,507.00
2023-01-19T00:04:22.181Z,509.00
2023-01-19T00:05:22.168Z,507.00
2023-01-19T00:06:22.230Z,508.00
2023-01-19T00:07:22.161Z,502.00
2023-01-19T00:54:42.816Z,500.00
2023-01-19T00:55:43.794Z,500.00
2023-01-19T00:56:43.795Z,500.00
2023-01-19T00:57:43.768Z,500.00
2023-01-19T00:58:43.762Z,500.00
2023-01-19T00:59:43.747Z,500.00
2023-01-19T01:00:43.762Z,450.00
2023-01-19T01:01:45.579Z,429.00
2023-01-19T01:02:44.007Z,429.00
2023-01-19T01:03:43.713Z,434.00
2023-01-19T01:04:43.709Z,452.00
2023-01-19T01:05:43.701Z,473.00
2023-01-19T01:06:43.689Z,500.00
2023-01-19T01:07:43.673Z,498.00
2023-01-19T01:08:43.688Z,501.00
2023-01-19T01:09:43.662Z,500.00
2023-01-19T01:10:43.673Z,500.00
2023-01-19T01:11:43.639Z,500.00
2023-01-19T01:12:54.857Z,500.00
2023-01-19T01:13:43.620Z,500.00
2023-01-19T01:14:43.616Z,499.00
2023-01-19T01:15:43.607Z,484.00
2023-01-19T01:16:43.653Z,478.00
2023-01-19T01:17:43.595Z,470.00
2023-01-19T01:18:43.573Z,500.00
2023-01-19T01:19:43.567Z,507.00
2023-01-19T01:20:43.561Z,506.00
2023-01-19T01:21:43.544Z,501.00
2023-01-19T01:22:43.534Z,501.00
2023-01-19T01:23:43.538Z,505.00
2023-01-19T01:24:43.523Z,500.00
2023-01-19T01:25:43.518Z,500.00
2023-01-19T01:26:43.549Z,500.00
2023-01-19T01:27:43.503Z,501.00
2023-01-19T01:28:43.526Z,505.00
2023-01-19T01:29:43.473Z,501.00
2023-01-19T01:30:43.596Z,507.00
2023-01-19T01:31:43.520Z,506.00
2023-01-19T01:32:43.455Z,508.00
2023-01-19T01:33:43.446Z,504.00
2023-01-19T01:34:43.428Z,504.00
2023-01-19T01:35:43.426Z,503.00
2023-01-19T01:36:43.430Z,505.00
2023-01-19T01:37:43.432Z,505.00
2023-01-19T01:38:43.391Z,507.00
2023-01-19T01:39:43.381Z,507.00
2023-01-19T01:40:43.375Z,504.00
2023-01-19T01:41:43.362Z,507.00
2023-01-19T01:42:43.394Z,501.00
2023-01-19T01:43:43.350Z,505.00
2023-01-19T01:44:43.340Z,505.00
2023-01-19T01:45:43.394Z,509.00
2023-01-19T01:46:43.338Z,503.00
2023-01-19T01:47:43.309Z,509.00
2023-01-19T01:48:43.318Z,504.00
2023-01-19T01:49:43.294Z,503.00
2023-01-19T01:50:43.282Z,505.00
2023-01-19T01:51:43.279Z,506.00
2023-01-19T01:52:43.262Z,502.00
2023-01-19T01:53:43.261Z,503.00
2023-01-19T01:54:43.249Z,504.00
2023-01-19T01:55:43.250Z,505.00
2023-01-19T01:56:43.239Z,505.00
2023-01-19T01:57:43.235Z,508.00
2023-01-19T01:58:43.243Z,503.00
2023-01-19T01:59:43.203Z,502.00
2023-01-19T02:00:43.295Z,503.00
2023-01-19T02:01:43.261Z,503.00
2023-01-19T02:02:43.184Z,504.00
2023-01-19T02:03:43.171Z,504.00
2023-01-19T02:04:43.166Z,502.00
2023-01-19T02:05:43.154Z,506.00
2023-01-19T02:06:43.137Z,506.00
2023-01-19T02:07:43.149Z,506.00
2023-01-19T02:08:43.122Z,507.00
2023-01-19T02:09:43.114Z,504.00
2023-01-19T02:10:43.106Z,508.00
2023-01-19T02:11:43.092Z,509.00
2023-01-19T02:12:43.092Z,507.00
2023-01-19T02:13:43.088Z,507.00
2023-01-19T02:14:43.090Z,503.00
2023-01-19T02:15:43.068Z,503.00
2023-01-19T02:16:43.118Z,503.00
2023-01-19T02:17:43.040Z,505.00
2023-01-19T02:18:43.039Z,507.00
2023-01-19T02:19:43.032Z,506.00
2023-01-19T02:20:43.042Z,508.00
2023-01-19T02:21:43.026Z,506.00
2023-01-19T02:22:42.993Z,506.00
2023-01-19T02:23:42.987Z,510.00
2023-01-19T02:24:42.975Z,507.00
2023-01-19T02:25:43.907Z,509.00
2023-01-19T02:26:43.915Z,508.00
2023-01-19T02:27:42.959Z,507.00
2023-01-19T02:28:42.946Z,515.00
2023-01-19T02:29:42.936Z,503.00
2023-01-19T02:30:43.039Z,508.00
2023-01-19T02:31:42.923Z,510.00
2023-01-19T02:32:42.913Z,510.00
2023-01-19T02:33:42.902Z,509.00
2023-01-19T02:34:43.414Z,511.00
2023-01-19T02:35:42.883Z,511.00
2023-01-19T02:36:42.873Z,512.00
2023-01-19T02:37:42.871Z,507.00
2023-01-19T02:38:42.872Z,509.00
2023-01-19T02:39:42.882Z,503.00
2023-01-19T02:40:42.855Z,508.00
2023-01-19T02:41:42.838Z,514.00
2023-01-19T02:42:42.835Z,513.00
2023-01-19T02:43:42.816Z,512.00
2023-01-19T02:44:42.841Z,512.00
2023-01-19T02:45:42.879Z,509.00
2023-01-19T02:46:42.855Z,512.00
2023-01-19T02:47:42.780Z,509.00
2023-01-19T02:48:42.848Z,508.00
2023-01-19T02:49:42.791Z,512.00
2023-01-19T02:50:42.759Z,509.00
2023-01-19T02:51:42.743Z,505.00
2023-01-19T02:52:42.740Z,513.00
2023-01-19T02:53:42.735Z,507.00
2023-01-19T02:54:42.723Z,512.00
2023-01-19T02:55:42.710Z,507.00
2023-01-19T02:56:42.699Z,509.00
2023-01-19T02:57:42.690Z,506.00
2023-01-19T02:58:42.702Z,511.00
2023-01-19T02:59:42.677Z,505.00
2023-01-19T03:00:42.668Z,506.00
2023-01-19T03:01:42.840Z,512.00
2023-01-19T03:02:42.707Z,510.00
2023-01-19T03:03:42.644Z,507.00
2023-01-19T03:04:42.628Z,514.00
2023-01-19T03:05:42.624Z,512.00
2023-01-19T03:06:42.615Z,513.00
2023-01-19T03:07:42.635Z,506.00
2023-01-19T03:08:42.618Z,508.00
2023-01-19T03:09:42.591Z,509.00
2023-01-19T03:10:42.587Z,508.00
2023-01-19T03:11:42.571Z,510.00
2023-01-19T03:12:42.558Z,510.00
2023-01-19T03:13:42.559Z,515.00
2023-01-19T03:14:42.542Z,510.00
2023-01-19T03:15:42.570Z,510.00
2023-01-19T03:16:42.637Z,516.00
2023-01-19T03:17:42.518Z,515.00
2023-01-19T03:18:42.540Z,517.00
2023-01-19T03:19:42.498Z,508.00
2023-01-19T03:20:43.433Z,509.00
2023-01-19T03:21:42.490Z,510.00
2023-01-19T03:22:42.475Z,508.00
2023-01-19T03:23:42.458Z,511.00
2023-01-19T03:24:42.452Z,510.00
2023-01-19T03:25:42.448Z,515.00
2023-01-19T03:26:42.432Z,512.00
2023-01-19T03:27:42.428Z,508.00
2023-01-19T03:28:42.414Z,512.00
2023-01-19T03:29:42.408Z,508.00
2023-01-19T03:30:42.483Z,514.00
2023-01-19T03:31:42.388Z,512.00
2023-01-19T03:32:42.391Z,507.00
2023-01-19T03:33:42.373Z,512.00
2023-01-19T03:34:42.387Z,506.00
2023-01-19T03:35:42.355Z,510.00
2023-01-19T03:36:42.348Z,514.00
2023-01-19T03:37:42.367Z,521.00
2023-01-19T03:38:42.339Z,513.00
2023-01-19T03:39:42.318Z,512.00
2023-01-19T03:40:42.309Z,513.00
2023-01-19T03:41:42.302Z,512.00
2023-01-19T03:42:42.291Z,510.00
2023-01-19T03:43:42.283Z,515.00
2023-01-19T03:44:42.273Z,509.00
2023-01-19T03:45:42.263Z,519.00
2023-01-19T03:46:42.257Z,511.00
2023-01-19T03:47:42.249Z,515.00
2023-01-19T03:48:42.249Z,512.00
2023-01-19T03:49:42.226Z,518.00
2023-01-19T03:50:42.256Z,510.00
2023-01-19T03:51:42.210Z,512.00
2023-01-19T03:52:42.196Z,512.00
2023-01-19T03:53:42.197Z,516.00
2023-01-19T03:54:42.187Z,515.00
2023-01-19T03:55:42.165Z,514.00
2023-01-19T03:56:42.162Z,514.00
2023-01-19T03:57:42.155Z,514.00
2023-01-19T03:58:42.144Z,516.00
2023-01-19T03:59:42.132Z,515.00
2023-01-19T04:00:42.141Z,514.00
2023-01-19T04:01:42.260Z,515.00
2023-01-19T04:02:42.162Z,517.00
2023-01-19T04:03:42.093Z,511.00
2023-01-19T04:04:42.088Z,515.00
2023-01-19T04:05:42.079Z,520.00
2023-01-19T04:06:42.093Z,514.00
2023-01-19T04:07:42.063Z,517.00
2023-01-19T04:08:42.051Z,519.00
2023-01-19T04:09:42.049Z,517.00
2023-01-19T04:10:42.032Z,514.00
2023-01-19T04:11:42.028Z,518.00
2023-01-19T04:12:42.015Z,518.00
2023-01-19T04:13:42.007Z,518.00
2023-01-19T04:14:42.005Z,513.00
2023-01-19T04:15:42.068Z,517.00
2023-01-19T04:16:41.987Z,517.00
2023-01-19T04:17:41.968Z,515.00
2023-01-19T04:18:41.961Z,513.00
2023-01-19T04:19:41.951Z,512.00
2023-01-19T04:20:41.940Z,519.00
2023-01-19T04:21:41.961Z,518.00
2023-01-19T04:22:41.956Z,518.00
2023-01-19T04:23:41.924Z,519.00
2023-01-19T04:24:41.910Z,514.00
2023-01-19T04:25:41.899Z,512.00
2023-01-19T04:26:41.889Z,512.00
2023-01-19T04:27:41.888Z,514.00
2023-01-19T04:28:41.874Z,515.00
2023-01-19T04:29:41.863Z,518.00
2023-01-19T04:30:41.858Z,523.00
2023-01-19T04:31:41.850Z,518.00
2023-01-19T04:32:41.838Z,520.00
2023-01-19T04:33:41.838Z,521.00
2023-01-19T04:34:41.822Z,518.00
2023-01-19T04:35:41.819Z,514.00
2023-01-19T04:36:41.810Z,518.00
2023-01-19T04:37:41.795Z,516.00
2023-01-19T04:38:41.826Z,515.00
2023-01-19T04:39:41.777Z,516.00
2023-01-19T04:40:41.763Z,516.00
2023-01-19T04:41:41.757Z,517.00
2023-01-19T04:42:41.765Z,521.00
2023-01-19T04:43:42.460Z,514.00
2023-01-19T04:44:41.738Z,515.00
2023-01-19T04:45:41.725Z,515.00
2023-01-19T04:46:41.822Z,515.00
2023-01-19T04:47:41.714Z,515.00
2023-01-19T04:48:42.278Z,515.00
2023-01-19T04:49:41.696Z,513.00
2023-01-19T04:50:41.674Z,516.00
2023-01-19T04:51:41.670Z,518.00
2023-01-19T04:52:41.655Z,522.00
2023-01-19T04:53:41.650Z,512.00
2023-01-19T04:54:41.670Z,518.00
2023-01-19T04:55:41.638Z,517.00
2023-01-19T04:56:41.623Z,518.00
2023-01-19T04:57:41.618Z,521.00
2023-01-19T04:58:41.603Z,519.00
2023-01-19T04:59:41.595Z,518.00
2023-01-19T05:00:41.594Z,520.00
2023-01-19T05:01:41.647Z,514.00
2023-01-19T05:02:41.610Z,517.00
2023-01-19T05:03:41.558Z,523.00
2023-01-19T05:04:41.549Z,521.00
2023-01-19T05:05:41.548Z,516.00
2023-01-19T05:06:41.543Z,517.00
2023-01-19T05:07:41.528Z,520.00
2023-01-19T05:08:42.205Z,517.00
2023-01-19T05:09:41.506Z,527.00
2023-01-19T05:10:41.522Z,526.00
2023-01-19T05:11:41.498Z,519.00
2023-01-19T05:12:41.485Z,525.00
2023-01-19T05:13:41.475Z,525.00
2023-01-19T05:14:41.467Z,524.00
2023-01-19T05:15:41.464Z,523.00
2023-01-19T05:16:41.447Z,521.00
2023-01-19T05:17:41.447Z,525.00
2023-01-19T05:18:41.434Z,523.00
2023-01-19T05:19:41.419Z,523.00
2023-01-19T05:20:41.423Z,524.00
2023-01-19T05:21:41.412Z,521.00
2023-01-19T05:22:41.416Z,525.00
2023-01-19T05:23:41.381Z,526.00
2023-01-19T05:24:41.380Z,521.00
2023-01-19T05:25:41.380Z,519.00
2023-01-19T05:26:41.381Z,522.00
2023-01-19T05:27:41.357Z,522.00
2023-01-19T05:28:41.347Z,522.00
2023-01-19T05:29:41.339Z,520.00
2023-01-19T05:30:41.398Z,518.00
2023-01-19T05:31:41.344Z,524.00
2023-01-19T05:32:41.305Z,523.00
2023-01-19T05:33:41.298Z,523.00
2023-01-19T05:34:41.293Z,522.00
2023-01-19T05:35:41.292Z,526.00
2023-01-19T05:36:41.287Z,517.00
2023-01-19T05:37:41.280Z,522.00
2023-01-19T05:38:41.256Z,527.00
2023-01-19T05:39:41.252Z,528.00
2023-01-19T05:40:41.233Z,518.00
2023-01-19T05:41:41.228Z,520.00
2023-01-19T05:42:41.244Z,523.00
2023-01-19T05:43:41.205Z,523.00
2023-01-19T05:44:41.206Z,524.00
2023-01-19T05:45:41.183Z,521.00
2023-01-19T05:46:41.329Z,524.00
2023-01-19T05:47:41.181Z,523.00
2023-01-19T05:48:41.154Z,523.00
2023-01-19T05:49:41.198Z,524.00
2023-01-19T05:50:41.160Z,522.00
2023-01-19T05:51:41.153Z,525.00
2023-01-19T05:52:41.132Z,523.00
2023-01-19T05:53:41.117Z,520.00
2023-01-19T05:54:41.123Z,527.00
2023-01-19T05:55:41.099Z,524.00
2023-01-19T05:56:41.101Z,523.00
2023-01-19T05:57:41.083Z,521.00
2023-01-19T05:58:41.099Z,524.00
2023-01-19T05:59:41.072Z,526.00
2023-01-19T06:00:41.060Z,522.00
2023-01-19T06:01:41.078Z,521.00
2023-01-19T06:02:41.109Z,523.00
2023-01-19T06:16:40.899Z,520.00
2023-01-19T06:18:41.002Z,526.00
2023-01-19T06:23:41.006Z,593.00
2023-01-19T06:28:41.003Z,660.00
2023-01-19T06:51:40.591Z,669.00
2023-01-19T06:53:43.794Z,685.00
2023-01-19T06:55:40.547Z,689.00
2023-01-19T06:56:40.540Z,692.00
2023-01-19T06:59:40.774Z,711.00
2023-01-19T07:00:40.503Z,704.00
2023-01-19T07:01:40.639Z,716.00
2023-01-19T07:02:41.624Z,701.00
2023-01-19T07:06:40.451Z,707.00
2023-01-19T07:08:40.420Z,705.00
2023-01-19T07:12:40.539Z,705.00
2023-01-19T07:14:40.371Z,710.00
2023-01-19T07:21:40.315Z,709.00
2023-01-19T07:22:40.527Z,711.00
2023-01-19T07:34:40.234Z,694.00
2023-01-19T07:37:40.193Z,695.00
2023-01-19T07:38:40.571Z,690.00
2023-01-19T07:41:40.964Z,692.00
2023-01-19T07:43:40.175Z,686.00
2023-01-19T07:44:40.167Z,701.00
2023-01-19T07:46:40.207Z,679.00
2023-01-19T07:51:41.166Z,674.00
2023-01-19T07:52:41.110Z,665.00
2023-01-19T07:53:43.761Z,663.00
2023-01-19T07:56:40.061Z,666.00
2023-01-19T07:57:40.058Z,661.00
2023-01-19T07:58:40.064Z,667.00
2023-01-19T07:59:40.295Z,665.00
2023-01-19T08:00:40.036Z,667.00
2023-01-19T08:04:40.026Z,660.00
2023-01-19T08:06:39.995Z,659.00
2023-01-19T08:08:39.963Z,664.00
2023-01-19T08:16:39.909Z,661.00
2023-01-19T08:21:40.108Z,655.00
2023-01-19T08:22:43.250Z,651.00
2023-01-19T08:25:40.002Z,654.00
2023-01-19T08:28:40.085Z,655.00
2023-01-19T08:31:40.046Z,649.00
2023-01-19T08:34:12.096Z,652.00
2023-01-19T08:39:39.868Z,652.00
2023-01-19T08:42:39.837Z,660.00
2023-01-19T08:46:39.870Z,756.00
2023-01-19T08:58:39.653Z,929.00
2023-01-19T09:48:39.208Z,717.00
2023-01-19T09:49:39.218Z,690.00
2023-01-19T09:50:39.919Z,660.00
2023-01-19T09:51:39.587Z,667.00
2023-01-19T09:53:39.163Z,652.00
2023-01-19T09:54:39.152Z,654.00
2023-01-19T09:55:39.143Z,655.00
2023-01-19T09:56:39.132Z,661.00
2023-01-19T09:58:39.111Z,658.00
2023-01-19T09:59:39.111Z,660.00
2023-01-19T10:00:39.650Z,663.00
2023-01-19T10:01:39.127Z,657.00
2023-01-19T10:02:39.111Z,666.00
2023-01-19T10:03:39.068Z,670.00
2023-01-19T10:04:39.053Z,684.00
2023-01-19T10:05:39.093Z,686.00
2023-01-19T10:06:39.100Z,691.00
2023-01-19T10:07:39.033Z,699.00
2023-01-19T10:08:39.020Z,715.00
2023-01-19T10:09:39.008Z,714.00
2023-01-19T10:10:39.096Z,722.00
2023-01-19T10:11:52.134Z,734.00
2023-01-19T10:12:38.993Z,735.00
2023-01-19T10:13:39.012Z,740.00
2023-01-19T10:14:38.973Z,746.00
2023-01-19T10:15:39.111Z,764.00
2023-01-19T10:16:38.953Z,769.00
2023-01-19T10:17:38.954Z,775.00
2023-01-19T10:18:38.934Z,782.00
2023-01-19T10:19:38.935Z,791.00
2023-01-19T10:20:39.099Z,795.00
2023-01-19T10:21:38.921Z,805.00
2023-01-19T10:22:38.946Z,802.00
2023-01-19T10:23:38.885Z,822.00
2023-01-19T10:24:39.613Z,823.00
2023-01-19T10:25:39.160Z,834.00
2023-01-19T10:26:38.860Z,840.00
2023-01-19T10:27:38.899Z,845.00
2023-01-19T10:28:38.854Z,848.00
2023-01-19T10:29:38.868Z,850.00
2023-01-19T10:30:38.858Z,863.00
2023-01-19T10:31:39.295Z,877.00
2023-01-19T10:32:38.942Z,872.00
2023-01-19T10:33:38.800Z,763.00
2023-01-19T10:34:38.792Z,615.00
2023-01-19T10:35:38.825Z,634.00
2023-01-19T10:36:39.153Z,662.00
2023-01-19T10:37:38.797Z,703.00
2023-01-19T10:38:38.752Z,691.00
2023-01-19T10:39:39.118Z,704.00
2023-01-19T10:40:38.738Z,691.00
2023-01-19T10:41:39.171Z,686.00
2023-01-19T10:42:38.821Z,695.00
2023-01-19T10:43:38.752Z,698.00
2023-01-19T10:44:38.711Z,715.00
2023-01-19T10:45:38.771Z,716.00
2023-01-19T10:46:39.115Z,731.00
2023-01-19T10:47:38.676Z,746.00
2023-01-19T10:48:38.666Z,754.00
2023-01-19T10:49:39.210Z,769.00
2023-01-19T10:50:39.185Z,774.00
2023-01-19T10:51:38.706Z,792.00
2023-01-19T10:53:38.660Z,803.00
2023-01-19T10:54:38.624Z,820.00
2023-01-19T10:55:38.681Z,823.00
2023-01-19T10:56:38.605Z,830.00
2023-01-19T10:57:38.613Z,839.00
2023-01-19T10:58:38.576Z,848.00
2023-01-19T11:00:38.819Z,884.00
2023-01-19T11:01:39.254Z,877.00
2023-01-19T11:02:38.812Z,893.00
2023-01-19T11:03:38.641Z,889.00
2023-01-19T11:04:38.701Z,910.00
2023-01-19T11:05:39.137Z,918.00
2023-01-19T11:06:38.625Z,923.00
2023-01-19T11:07:38.608Z,921.00
2023-01-19T11:08:38.601Z,944.00
2023-01-19T11:09:38.593Z,946.00
2023-01-19T11:10:38.590Z,949.00
2023-01-19T11:11:38.644Z,957.00
2023-01-19T11:12:38.562Z,968.00
2023-01-19T11:13:38.575Z,966.00
2023-01-19T11:14:38.562Z,976.00
2023-01-19T11:15:38.533Z,994.00
2023-01-19T11:16:38.676Z,1002.00
2023-01-19T11:17:38.551Z,1004.00
2023-01-19T11:18:38.528Z,1014.00
2023-01-19T11:19:38.505Z,1027.00
2023-01-19T11:20:38.503Z,1047.00
2023-01-19T11:21:38.633Z,1044.00
2023-01-19T11:22:38.482Z,1045.00
2023-01-19T11:23:38.460Z,1048.00
2023-01-19T11:24:38.455Z,1033.00
2023-01-19T11:25:38.447Z,1027.00
2023-01-19T11:27:38.654Z,997.00
2023-01-19T11:29:38.413Z,898.00
2023-01-19T11:30:38.411Z,878.00
2023-01-19T11:31:38.683Z,820.00
2023-01-19T11:32:38.393Z,736.00
2023-01-19T11:33:38.433Z,723.00
2023-01-19T11:34:38.563Z,704.00
2023-01-19T11:35:38.376Z,667.00
2023-01-19T11:36:38.628Z,665.00
2023-01-19T11:37:38.771Z,656.00
2023-01-19T11:38:38.630Z,638.00
2023-01-19T11:39:38.779Z,630.00
2023-01-19T11:40:38.316Z,617.00
2023-01-19T11:41:38.634Z,619.00
2023-01-19T11:42:38.316Z,608.00
2023-01-19T11:43:48.539Z,594.00
2023-01-19T11:44:38.274Z,595.00
2023-01-19T11:45:38.648Z,595.00
2023-01-19T11:46:38.274Z,594.00
2023-01-19T11:47:38.244Z,576.00
2023-01-19T11:48:38.240Z,577.00
2023-01-19T11:49:38.666Z,570.00
2023-01-19T11:50:38.219Z,567.00
2023-01-19T11:51:38.538Z,525.00
2023-01-19T11:52:38.199Z,500.00
2023-01-19T11:53:38.205Z,500.00
2023-01-19T11:54:38.186Z,501.00
2023-01-19T11:55:38.182Z,499.00
2023-01-19T11:56:38.172Z,503.00
2023-01-19T11:57:38.169Z,500.00
2023-01-19T11:58:38.150Z,513.00
2023-01-19T11:59:38.140Z,510.00
2023-01-19T12:00:38.142Z,505.00
2023-01-19T12:01:38.121Z,516.00
2023-01-19T12:02:38.142Z,503.00
2023-01-19T12:03:38.195Z,515.00
2023-01-19T12:04:38.110Z,515.00
2023-01-19T12:05:38.383Z,509.00
2023-01-19T12:06:38.086Z,510.00
2023-01-19T12:07:38.224Z,509.00
2023-01-19T12:08:38.060Z,526.00
2023-01-19T12:09:38.653Z,542.00
2023-01-19T12:10:38.057Z,560.00
2023-01-19T12:11:38.035Z,582.00
2023-01-19T12:12:38.155Z,584.00
2023-01-19T12:13:38.017Z,591.00
2023-01-19T12:14:38.011Z,570.00
2023-01-19T12:15:38.024Z,573.00
2023-01-19T12:16:38.073Z,590.00
2023-01-19T12:17:38.183Z,603.00
2023-01-19T12:18:38.000Z,612.00
2023-01-19T12:19:37.964Z,614.00
2023-01-19T12:20:37.948Z,613.00
2023-01-19T12:21:38.205Z,620.00
2023-01-19T12:22:37.945Z,626.00
2023-01-19T12:23:37.928Z,635.00
2023-01-19T12:24:37.988Z,634.00
2023-01-19T12:25:37.907Z,596.00
2023-01-19T12:26:38.186Z,625.00
2023-01-19T12:27:37.890Z,630.00
2023-01-19T12:28:37.878Z,638.00
2023-01-19T12:29:37.863Z,633.00
2023-01-19T12:30:38.010Z,635.00
2023-01-19T12:31:37.929Z,642.00
2023-01-19T12:32:38.148Z,637.00
2023-01-19T12:33:37.831Z,641.00
2023-01-19T12:34:37.827Z,639.00
2023-01-19T12:35:37.808Z,637.00
2023-01-19T12:36:38.651Z,638.00
2023-01-19T12:37:38.185Z,646.00
2023-01-19T12:38:37.786Z,642.00
2023-01-19T12:39:37.783Z,642.00
2023-01-19T12:40:37.774Z,644.00
2023-01-19T12:41:37.773Z,644.00
2023-01-19T12:42:38.158Z,645.00
2023-01-19T12:43:38.159Z,645.00
2023-01-19T12:44:37.737Z,643.00
2023-01-19T12:45:37.730Z,656.00
2023-01-19T12:46:37.712Z,647.00
2023-01-19T12:47:37.725Z,652.00
2023-01-19T12:48:37.693Z,649.00
2023-01-19T12:49:37.689Z,645.00
2023-01-19T12:50:37.736Z,648.00
2023-01-19T12:51:37.670Z,651.00
2023-01-19T12:52:37.657Z,643.00
2023-01-19T12:53:37.685Z,646.00
2023-01-19T12:54:37.661Z,650.00
2023-01-19T12:55:38.629Z,648.00
2023-01-19T12:56:37.651Z,650.00
2023-01-19T12:57:37.605Z,647.00
2023-01-19T12:58:37.620Z,648.00
2023-01-19T12:59:37.598Z,649.00
2023-01-19T13:00:37.622Z,654.00
2023-01-19T13:01:37.634Z,655.00
2023-01-19T13:02:36.597Z,647.00
2023-01-19T13:03:37.858Z,651.00
2023-01-19T13:04:37.555Z,650.00
2023-01-19T13:05:37.538Z,647.00
2023-01-19T13:06:37.667Z,651.00
2023-01-19T13:07:37.519Z,648.00
2023-01-19T13:08:38.168Z,650.00
2023-01-19T13:09:37.535Z,649.00
2023-01-19T13:10:37.492Z,649.00
2023-01-19T13:11:37.488Z,647.00
2023-01-19T13:12:37.472Z,648.00
2023-01-19T13:13:37.688Z,649.00
2023-01-19T13:14:37.690Z,650.00
2023-01-19T13:15:37.471Z,649.00
2023-01-19T13:16:37.698Z,652.00
2023-01-19T13:17:37.430Z,648.00
2023-01-19T13:18:37.684Z,653.00
2023-01-19T13:19:37.809Z,647.00
2023-01-19T13:20:37.637Z,652.00
2023-01-19T13:21:37.388Z,646.00
2023-01-19T13:22:37.388Z,649.00
2023-01-19T13:23:37.377Z,646.00
2023-01-19T13:24:37.364Z,646.00
2023-01-19T13:25:37.389Z,647.00
2023-01-19T13:26:37.674Z,648.00
2023-01-19T13:27:37.339Z,650.00
2023-01-19T13:28:37.326Z,650.00
2023-01-19T13:29:37.324Z,650.00
2023-01-19T13:30:37.372Z,646.00
2023-01-19T13:31:38.301Z,653.00
2023-01-19T13:32:37.291Z,646.00
2023-01-19T13:33:40.564Z,647.00
2023-01-19T13:34:37.272Z,648.00
2023-01-19T13:35:37.266Z,648.00
2023-01-19T13:36:37.260Z,649.00
2023-01-19T13:37:40.461Z,647.00
2023-01-19T13:39:37.226Z,648.00
2023-01-19T13:40:37.527Z,648.00
2023-01-19T13:41:37.446Z,648.00
2023-01-19T13:42:37.194Z,651.00
2023-01-19T13:43:37.185Z,646.00
2023-01-19T13:44:37.178Z,645.00
2023-01-19T13:45:37.203Z,649.00
2023-01-19T13:46:37.186Z,647.00
2023-01-19T13:47:37.164Z,645.00
2023-01-19T13:48:37.146Z,654.00
2023-01-19T13:49:37.131Z,646.00
2023-01-19T13:50:37.125Z,642.00
2023-01-19T13:51:37.111Z,644.00
2023-01-19T13:52:37.183Z,645.00
2023-01-19T13:53:38.095Z,647.00
2023-01-19T13:54:37.091Z,652.00
2023-01-19T13:55:37.097Z,646.00
2023-01-19T13:56:37.066Z,648.00
2023-01-19T13:57:37.255Z,640.00
2023-01-19T13:58:37.060Z,642.00
2023-01-19T13:59:37.063Z,645.00
2023-01-19T14:00:37.037Z,642.00
2023-01-19T14:01:37.198Z,642.00
2023-01-19T14:02:37.376Z,645.00
2023-01-19T14:03:37.066Z,642.00
2023-01-19T14:04:37.003Z,641.00
2023-01-19T14:05:37.101Z,640.00
2023-01-19T14:06:37.032Z,642.00
2023-01-19T14:07:37.091Z,647.00
2023-01-19T14:08:36.974Z,639.00
2023-01-19T14:09:36.957Z,647.00
2023-01-19T14:10:37.194Z,644.00
2023-01-19T14:11:36.933Z,641.00
2023-01-19T14:12:43.606Z,642.00
2023-01-19T14:13:36.964Z,643.00
2023-01-19T14:14:36.907Z,644.00
2023-01-19T14:15:37.224Z,645.00
2023-01-19T14:16:36.884Z,647.00
2023-01-19T14:17:36.874Z,645.00
2023-01-19T14:18:36.875Z,644.00
2023-01-19T14:19:36.899Z,640.00
2023-01-19T14:20:37.199Z,643.00
2023-01-19T14:21:37.201Z,641.00
2023-01-19T14:22:36.829Z,639.00
2023-01-19T14:23:36.821Z,643.00
2023-01-19T14:24:36.816Z,637.00
2023-01-19T14:25:36.807Z,640.00
2023-01-19T14:26:36.795Z,641.00
2023-01-19T14:27:36.785Z,639.00
2023-01-19T14:28:36.776Z,636.00
2023-01-19T14:29:37.238Z,639.00
2023-01-19T14:30:36.833Z,643.00
2023-01-19T14:31:36.755Z,644.00
2023-01-19T14:32:36.736Z,636.00
2023-01-19T14:33:36.731Z,636.00
2023-01-19T14:34:36.717Z,636.00
2023-01-19T14:35:36.716Z,643.00
2023-01-19T14:36:36.699Z,640.00
2023-01-19T14:37:36.700Z,634.00
2023-01-19T14:38:36.703Z,635.00
2023-01-19T14:39:36.719Z,635.00
2023-01-19T14:40:36.674Z,634.00
2023-01-19T14:41:36.667Z,634.00
2023-01-19T14:42:36.647Z,636.00
2023-01-19T14:43:36.638Z,633.00
2023-01-19T14:44:36.636Z,631.00
2023-01-19T14:45:36.652Z,637.00
2023-01-19T14:46:36.784Z,636.00
2023-01-19T14:47:36.596Z,635.00
2023-01-19T14:48:36.593Z,631.00
2023-01-19T14:49:36.583Z,640.00
2023-01-19T14:50:36.572Z,651.00
2023-01-19T14:51:36.580Z,655.00
2023-01-19T14:52:36.557Z,655.00
2023-01-19T14:53:36.543Z,657.00
2023-01-19T14:54:36.539Z,656.00
2023-01-19T14:55:36.526Z,662.00
2023-01-19T14:56:36.711Z,666.00
2023-01-19T14:57:36.515Z,661.00
2023-01-19T14:58:36.502Z,680.00
2023-01-19T14:59:36.491Z,684.00
2023-01-19T15:00:36.570Z,680.00
2023-01-19T15:01:36.618Z,681.00
2023-01-19T15:02:36.504Z,691.00
2023-01-19T15:03:45.413Z,708.00
2023-01-19T15:04:36.445Z,710.00
2023-01-19T15:05:36.434Z,714.00
2023-01-19T15:06:36.453Z,719.00
2023-01-19T15:07:36.415Z,765.00
2023-01-19T15:08:36.406Z,886.00
2023-01-19T15:09:36.408Z,1002.00
2023-01-19T15:10:36.412Z,1077.00
2023-01-19T15:11:36.373Z,1086.00
2023-01-19T15:12:36.366Z,1073.00
2023-01-19T15:13:36.360Z,1027.00
2023-01-19T15:14:36.348Z,1082.00
2023-01-19T15:15:36.340Z,1108.00
2023-01-19T15:16:36.330Z,1143.00
2023-01-19T15:17:36.347Z,1186.00
2023-01-19T15:18:36.310Z,1167.00
2023-01-19T15:19:36.303Z,1189.00
2023-01-19T15:20:36.299Z,1192.00
2023-01-19T15:21:36.289Z,1196.00
2023-01-19T15:22:36.278Z,1169.00
2023-01-19T15:23:36.273Z,1143.00
2023-01-19T15:24:36.255Z,1143.00
2023-01-19T15:25:36.246Z,1138.00
2023-01-19T15:26:36.241Z,1156.00
2023-01-19T15:27:36.228Z,1129.00
2023-01-19T15:28:36.220Z,1133.00
2023-01-19T15:29:36.228Z,1124.00
2023-01-19T15:30:36.304Z,1134.00
2023-01-19T15:31:36.228Z,1136.00
2023-01-19T15:32:36.182Z,1140.00
2023-01-19T15:33:36.204Z,1157.00
2023-01-19T15:34:36.160Z,1149.00
2023-01-19T15:35:36.164Z,1142.00
2023-01-19T15:36:36.145Z,1146.00
2023-01-19T15:37:36.143Z,1138.00
2023-01-19T15:38:36.126Z,1118.00
2023-01-19T21:18:33.055Z,579.00
2023-01-19T21:19:33.030Z,578.00
2023-01-19T21:20:33.077Z,577.00
2023-01-19T21:21:33.017Z,578.00
2023-01-19T21:22:33.018Z,583.00
2023-01-19T21:23:32.997Z,577.00
2023-01-19T21:24:32.994Z,578.00
2023-01-19T21:25:33.008Z,575.00
2023-01-19T21:26:32.963Z,575.00
2023-01-19T21:27:32.959Z,577.00
2023-01-19T21:28:32.956Z,579.00
2023-01-19T21:29:32.942Z,575.00
2023-01-19T21:30:32.980Z,577.00
2023-01-19T21:31:32.981Z,577.00
2023-01-19T21:32:32.928Z,572.00
2023-01-19T21:33:32.911Z,575.00
2023-01-19T21:34:32.892Z,570.00
2023-01-19T21:35:32.913Z,577.00
2023-01-19T21:36:32.876Z,576.00
2023-01-19T21:37:32.916Z,576.00
2023-01-19T21:38:32.866Z,571.00
2023-01-19T21:39:32.853Z,570.00
2023-01-19T21:40:32.839Z,577.00
2023-01-19T21:41:32.859Z,572.00
2023-01-19T21:42:32.821Z,572.00
2023-01-19T21:43:32.811Z,570.00
2023-01-19T21:44:32.803Z,574.00
2023-01-19T21:45:32.840Z,568.00
2023-01-19T23:03:32.898Z,541.00
